createdAt,value
2023-05-13T00:01:43.448Z,10.90
2023-05-13T00:04:10.271Z,10.90
2023-05-13T00:06:37.371Z,10.90
2023-05-13T00:09:04.482Z,10.90
2023-05-13T00:11:31.310Z,10.80
2023-05-13T00:13:58.167Z,10.70
2023-05-13T00:16:27.661Z,10.70
2023-05-13T00:18:55.979Z,10.80
2023-05-13T00:21:23.621Z,10.70
2023-05-13T00:23:50.549Z,10.70
2023-05-13T00:26:17.485Z,10.70
2023-05-13T00:28:44.348Z,10.80
2023-05-13T00:31:11.535Z,10.70
2023-05-13T00:33:38.557Z,10.70
2023-05-13T00:36:06.424Z,10.70
2023-05-13T00:38:33.453Z,10.70
2023-05-13T00:41:00.714Z,10.80
2023-05-13T00:43:27.609Z,10.70
2023-05-13T00:45:54.598Z,10.80
2023-05-13T00:48:23.097Z,10.70
2023-05-13T00:50:50.201Z,10.80
2023-05-13T00:53:17.800Z,10.80
2023-05-13T00:55:46.126Z,10.80
2023-05-13T00:58:14.000Z,10.80
2023-05-13T01:01:15.225Z,10.70
2023-05-13T01:04:04.385Z,10.70
2023-05-13T01:06:40.447Z,10.70
2023-05-13T01:09:26.196Z,10.80
2023-05-13T01:11:55.525Z,10.70
2023-05-13T01:14:34.014Z,10.80
2023-05-13T01:17:12.293Z,10.70
2023-05-13T01:19:44.813Z,10.80
2023-05-13T01:22:11.686Z,10.70
2023-05-13T01:24:38.669Z,10.70
2023-05-13T01:27:06.355Z,10.70
2023-05-13T01:29:33.503Z,10.70
2023-05-13T01:32:01.165Z,10.70
2023-05-13T01:34:28.545Z,10.70
2023-05-13T01:36:56.279Z,10.70
2023-05-13T01:39:24.474Z,10.70
2023-05-13T01:41:51.422Z,10.70
2023-05-13T01:44:18.286Z,10.70
2023-05-13T01:46:45.512Z,10.60
2023-05-13T01:49:12.590Z,10.70
2023-05-13T01:51:40.317Z,10.70
2023-05-13T01:54:07.234Z,10.70
2023-05-13T01:56:34.392Z,10.70
2023-05-13T01:59:01.269Z,10.80
2023-05-13T02:01:28.246Z,10.80
2023-05-13T02:04:00.016Z,10.80
2023-05-13T02:06:28.023Z,10.70
2023-05-13T02:08:54.966Z,10.70
2023-05-13T02:11:22.441Z,10.60
2023-05-13T02:13:49.384Z,10.70
2023-05-13T02:16:20.278Z,10.70
2023-05-13T02:18:47.112Z,10.80
2023-05-13T02:21:14.034Z,10.70
2023-05-13T02:23:40.931Z,10.60
2023-05-13T02:26:07.821Z,10.60
2023-05-13T02:28:34.636Z,10.50
2023-05-13T02:31:01.517Z,10.40
2023-05-13T02:33:28.331Z,10.60
2023-05-13T02:35:55.159Z,10.50
2023-05-13T02:38:22.033Z,10.60
2023-05-13T02:40:49.205Z,10.60
2023-05-13T02:43:16.068Z,10.60
2023-05-13T02:45:42.913Z,10.50
2023-05-13T02:48:11.029Z,10.60
2023-05-13T02:50:37.997Z,10.50
2023-05-13T02:53:04.851Z,10.60
2023-05-13T02:55:31.707Z,10.60
2023-05-13T02:57:58.552Z,10.60
2023-05-13T03:00:25.586Z,10.50
2023-05-13T03:02:52.533Z,10.60
2023-05-13T03:05:19.540Z,10.60
2023-05-13T03:07:46.526Z,10.60
2023-05-13T03:10:13.797Z,10.60
2023-05-13T03:12:40.748Z,10.60
2023-05-13T03:15:08.419Z,10.50
2023-05-13T03:17:35.287Z,10.50
2023-05-13T03:20:02.218Z,10.40
2023-05-13T03:22:29.196Z,10.50
2023-05-13T03:24:57.160Z,10.50
2023-05-13T03:27:24.016Z,10.60
2023-05-13T03:29:51.032Z,10.50
2023-05-13T03:32:17.903Z,10.50
2023-05-13T03:34:44.712Z,10.40
2023-05-13T03:37:11.734Z,10.30
2023-05-13T03:39:38.550Z,10.40
2023-05-13T03:42:05.710Z,10.40
2023-05-13T03:44:32.527Z,10.50
2023-05-13T03:46:59.311Z,10.40
2023-05-13T03:49:26.275Z,10.50
2023-05-13T03:51:53.083Z,10.60
2023-05-13T03:54:19.871Z,10.50
2023-05-13T03:56:46.804Z,10.50
2023-05-13T03:59:13.674Z,10.40
2023-05-13T04:01:40.745Z,10.40
2023-05-13T04:04:07.579Z,10.50
2023-05-13T04:06:34.498Z,10.50
2023-05-13T04:09:04.452Z,10.50
2023-05-13T04:11:32.323Z,10.50
2023-05-13T04:13:59.397Z,10.50
2023-05-13T04:16:26.267Z,10.50
2023-05-13T04:18:53.231Z,10.50
2023-05-13T04:21:20.077Z,10.50
2023-05-13T04:23:46.900Z,10.50
2023-05-13T04:26:13.711Z,10.60
2023-05-13T04:28:40.601Z,10.50
2023-05-13T04:31:07.452Z,10.50
2023-05-13T04:33:34.284Z,10.40
2023-05-13T04:36:01.353Z,10.40
2023-05-13T04:38:28.162Z,10.40
2023-05-13T04:40:55.020Z,10.40
2023-05-13T04:43:22.116Z,10.40
2023-05-13T04:45:49.255Z,10.40
2023-05-13T04:48:16.495Z,10.40
2023-05-13T04:50:47.108Z,10.30
2023-05-13T04:53:15.586Z,10.50
2023-05-13T04:55:42.603Z,10.40
2023-05-13T04:58:09.507Z,10.50
2023-05-13T05:00:36.311Z,10.50
2023-05-13T05:03:03.249Z,10.50
2023-05-13T05:05:30.155Z,10.40
2023-05-13T05:07:56.953Z,10.50
2023-05-13T05:10:23.912Z,10.40
2023-05-13T05:12:51.032Z,10.40
2023-05-13T05:15:17.857Z,10.40
2023-05-13T05:17:45.404Z,10.40
2023-05-13T05:20:13.392Z,10.30
2023-05-13T05:22:41.998Z,10.40
2023-05-13T05:25:10.645Z,10.50
2023-05-13T05:27:37.491Z,10.40
2023-05-13T05:30:05.299Z,10.50
2023-05-13T05:32:32.764Z,10.50
2023-05-13T05:35:02.050Z,10.50
2023-05-13T05:37:30.807Z,10.50
2023-05-13T05:39:57.660Z,10.50
2023-05-13T05:42:24.488Z,10.60
2023-05-13T05:44:51.337Z,10.60
2023-05-13T05:47:18.147Z,10.50
2023-05-13T05:49:45.006Z,10.50
2023-05-13T05:52:13.267Z,10.50
2023-05-13T05:54:40.140Z,10.60
2023-05-13T05:57:07.022Z,10.70
2023-05-13T05:59:33.909Z,10.70
2023-05-13T06:02:00.799Z,10.60
2023-05-13T06:04:27.799Z,10.60
2023-05-13T06:06:54.636Z,10.70
2023-05-13T06:09:21.567Z,10.80
2023-05-13T06:11:48.401Z,10.80
2023-05-13T06:14:16.688Z,10.90
2023-05-13T06:16:44.678Z,10.90
2023-05-13T06:19:11.596Z,11.00
2023-05-13T06:21:38.491Z,11.00
2023-05-13T06:24:05.652Z,11.10
2023-05-13T06:26:32.648Z,11.10
2023-05-13T06:28:59.539Z,11.10
2023-05-13T06:31:26.735Z,11.20
2023-05-13T06:33:53.663Z,11.20
2023-05-13T06:36:20.646Z,11.30
2023-05-13T06:38:47.664Z,11.40
2023-05-13T06:41:15.321Z,11.40
2023-05-13T06:43:42.145Z,11.30
2023-05-13T06:46:08.997Z,11.30
2023-05-13T06:48:35.855Z,11.30
2023-05-13T06:51:02.682Z,11.30
2023-05-13T06:53:29.531Z,11.30
2023-05-13T06:55:56.383Z,11.20
2023-05-13T06:58:23.223Z,11.20
2023-05-13T07:00:50.125Z,11.10
2023-05-13T07:03:17.742Z,11.30
2023-05-13T07:05:44.883Z,11.30
2023-05-13T07:08:17.689Z,11.50
2023-05-13T07:10:45.044Z,11.50
2023-05-13T07:13:11.962Z,11.60
2023-05-13T07:15:38.893Z,11.60
2023-05-13T07:18:05.882Z,11.60
2023-05-13T07:20:32.934Z,11.50
2023-05-13T07:22:59.761Z,11.60
2023-05-13T07:25:26.661Z,11.80
2023-05-13T07:27:53.526Z,12.00
2023-05-13T07:30:20.642Z,12.20
2023-05-13T07:32:47.936Z,12.60
2023-05-13T07:35:17.091Z,12.60
2023-05-13T07:37:46.951Z,12.80
2023-05-13T07:40:14.059Z,12.70
2023-05-13T07:42:41.308Z,12.80
2023-05-13T07:45:09.064Z,12.70
2023-05-13T07:47:35.880Z,12.70
2023-05-13T07:50:02.798Z,12.50
2023-05-13T07:52:29.678Z,12.50
2023-05-13T07:54:56.555Z,12.60
2023-05-13T07:57:23.483Z,12.50
2023-05-13T07:59:50.304Z,12.20
2023-05-13T08:02:17.254Z,12.00
2023-05-13T08:04:44.216Z,11.90
2023-05-13T08:07:11.758Z,12.00
2023-05-13T08:09:38.827Z,12.30
2023-05-13T08:12:06.394Z,12.30
2023-05-13T08:14:33.251Z,12.30
2023-05-13T08:17:00.051Z,12.30
2023-05-13T08:19:26.899Z,12.60
2023-05-13T08:21:53.776Z,12.70
2023-05-13T08:24:20.808Z,12.70
2023-05-13T08:26:47.712Z,12.80
2023-05-13T08:29:15.692Z,12.80
2023-05-13T08:31:42.621Z,12.70
2023-05-13T08:34:09.461Z,12.70
2023-05-13T08:36:36.493Z,12.70
2023-05-13T08:39:03.690Z,12.60
2023-05-13T08:41:31.846Z,12.50
2023-05-13T08:43:59.192Z,12.60
2023-05-13T08:46:28.908Z,12.80
2023-05-13T08:48:56.413Z,12.90
2023-05-13T08:51:23.807Z,12.90
2023-05-13T08:53:53.120Z,13.10
2023-05-13T08:56:20.114Z,13.30
2023-05-13T08:58:46.966Z,13.30
2023-05-13T09:01:13.887Z,13.20
2023-05-13T09:04:00.036Z,13.20
2023-05-13T09:06:26.942Z,13.10
2023-05-13T09:08:54.991Z,13.00
2023-05-13T09:11:22.966Z,13.00
2023-05-13T09:14:02.741Z,12.90
2023-05-13T09:16:30.408Z,12.90
2023-05-13T09:19:04.205Z,13.00
2023-05-13T09:21:35.484Z,13.10
2023-05-13T09:24:18.989Z,13.20
2023-05-13T09:26:46.393Z,13.30
2023-05-13T09:29:25.396Z,13.40
2023-05-13T09:31:55.135Z,13.50
2023-05-13T09:34:49.125Z,13.50
2023-05-13T09:37:18.742Z,13.30
2023-05-13T09:39:46.167Z,13.30
2023-05-13T09:42:18.458Z,13.40
2023-05-13T09:44:49.750Z,13.40
2023-05-13T09:47:17.812Z,13.30
2023-05-13T09:49:55.038Z,13.30
2023-05-13T09:52:22.500Z,13.30
2023-05-13T09:54:49.347Z,13.40
2023-05-13T09:57:16.259Z,13.40
2023-05-13T09:59:43.118Z,13.40
2023-05-13T10:02:11.597Z,13.40
2023-05-13T10:04:38.852Z,13.40
2023-05-13T10:07:06.355Z,13.50
2023-05-13T10:09:36.936Z,13.50
2023-05-13T10:12:07.848Z,13.60
2023-05-13T10:14:37.276Z,13.70
2023-05-13T10:17:05.449Z,13.70
2023-05-13T10:19:32.942Z,13.70
2023-05-13T10:22:00.409Z,13.60
2023-05-13T10:24:28.917Z,13.70
2023-05-13T10:26:58.045Z,14.00
2023-05-13T10:29:26.557Z,14.20
2023-05-13T10:31:54.545Z,14.10
2023-05-13T10:34:22.988Z,14.10
2023-05-13T10:37:27.515Z,14.20
2023-05-13T10:40:22.222Z,14.10
2023-05-13T10:43:08.761Z,14.00
2023-05-13T10:45:35.728Z,14.00
2023-05-13T10:48:11.919Z,14.00
2023-05-13T10:50:39.247Z,13.90
2023-05-13T10:53:19.661Z,13.80
2023-05-13T10:55:46.624Z,13.80
2023-05-13T10:58:14.994Z,13.90
2023-05-13T11:00:45.822Z,14.10
2023-05-13T11:03:18.599Z,14.30
2023-05-13T11:05:59.309Z,14.40
2023-05-13T11:08:44.319Z,14.40
2023-05-13T11:11:20.818Z,14.40
2023-05-13T11:13:51.182Z,14.40
2023-05-13T11:16:18.693Z,14.50
2023-05-13T11:18:45.807Z,14.80
2023-05-13T11:21:13.324Z,15.10
2023-05-13T11:24:06.432Z,15.40
2023-05-13T11:26:53.436Z,15.60
2023-05-13T11:29:36.399Z,15.60
2023-05-13T11:32:05.818Z,15.60
2023-05-13T11:34:34.401Z,15.30
2023-05-13T11:37:04.152Z,15.30
2023-05-13T11:39:33.052Z,15.50
2023-05-13T11:42:03.903Z,15.50
2023-05-13T11:44:31.146Z,15.60
2023-05-13T11:47:06.053Z,15.80
2023-05-13T11:49:44.553Z,16.10
2023-05-13T11:52:17.157Z,16.20
2023-05-13T11:54:56.243Z,16.20
2023-05-13T11:57:28.343Z,16.60
2023-05-13T11:59:57.964Z,17.40
2023-05-13T12:02:33.515Z,17.80
2023-05-13T12:05:04.262Z,18.10
2023-05-13T12:07:32.018Z,18.20
2023-05-13T12:10:01.533Z,17.30
2023-05-13T12:12:30.290Z,17.40
2023-05-13T12:15:03.791Z,17.10
2023-05-13T12:17:31.899Z,16.80
2023-05-13T12:20:19.424Z,16.80
2023-05-13T12:22:46.133Z,16.40
2023-05-13T12:25:31.389Z,16.20
2023-05-13T12:27:59.809Z,16.10
2023-05-13T12:30:33.902Z,16.30
2023-05-13T12:33:00.856Z,16.20
2023-05-13T12:35:27.764Z,16.30
2023-05-13T12:38:02.328Z,16.30
2023-05-13T12:40:29.282Z,16.20
2023-05-13T12:43:00.718Z,16.30
2023-05-13T12:45:33.511Z,16.40
2023-05-13T12:48:01.058Z,16.50
2023-05-13T12:50:28.009Z,16.50
2023-05-13T12:52:54.875Z,16.50
2023-05-13T12:55:22.093Z,16.60
2023-05-13T12:58:03.121Z,16.80
2023-05-13T13:00:30.907Z,16.80
2023-05-13T13:02:58.198Z,16.60
2023-05-13T13:05:26.986Z,16.70
2023-05-13T13:07:53.846Z,16.80
2023-05-13T13:10:20.788Z,16.70
2023-05-13T13:12:47.941Z,16.70
2023-05-13T13:15:14.750Z,16.70
2023-05-13T13:17:41.649Z,16.90
2023-05-13T13:20:08.861Z,17.00
2023-05-13T13:22:37.186Z,16.90
2023-05-13T13:25:07.890Z,16.90
2023-05-13T13:27:35.158Z,16.80
2023-05-13T13:30:02.578Z,17.10
2023-05-13T13:32:29.503Z,17.30
2023-05-13T13:34:58.129Z,17.20
2023-05-13T13:37:25.122Z,17.50
2023-05-13T13:39:51.978Z,18.00
2023-05-13T13:42:18.792Z,18.20
2023-05-13T13:44:45.623Z,18.40
2023-05-13T13:47:12.483Z,18.70
2023-05-13T13:49:39.321Z,18.40
2023-05-13T13:52:06.387Z,18.40
2023-05-13T13:54:33.228Z,18.10
2023-05-13T13:57:00.052Z,18.40
2023-05-13T13:59:26.913Z,18.40
2023-05-13T14:01:54.075Z,17.90
2023-05-13T14:04:23.591Z,17.60
2023-05-13T14:06:51.229Z,17.20
2023-05-13T14:09:18.616Z,17.00
2023-05-13T14:11:45.661Z,16.80
2023-05-13T14:14:12.776Z,17.00
2023-05-13T14:16:40.128Z,17.10
2023-05-13T14:19:06.968Z,17.00
2023-05-13T14:21:33.882Z,17.40
2023-05-13T14:24:00.689Z,17.60
2023-05-13T14:26:27.866Z,17.70
2023-05-13T14:28:54.815Z,17.80
2023-05-13T14:31:21.690Z,18.10
2023-05-13T14:33:48.525Z,18.00
2023-05-13T14:36:16.309Z,18.00
2023-05-13T14:38:44.322Z,18.40
2023-05-13T14:41:12.594Z,19.10
2023-05-13T14:43:39.434Z,19.20
2023-05-13T14:46:06.309Z,18.90
2023-05-13T14:48:33.126Z,18.90
2023-05-13T14:50:59.967Z,18.40
2023-05-13T14:53:26.805Z,18.30
2023-05-13T14:55:53.863Z,18.10
2023-05-13T14:58:20.769Z,17.50
2023-05-13T15:00:49.137Z,17.30
2023-05-13T15:03:16.652Z,17.40
2023-05-13T15:05:44.296Z,17.50
2023-05-13T15:08:11.448Z,17.40
2023-05-13T15:10:38.244Z,17.40
2023-05-13T15:13:05.030Z,17.40
2023-05-13T15:15:33.565Z,17.40
2023-05-13T15:18:00.564Z,17.40
2023-05-13T15:20:28.544Z,17.30
2023-05-13T15:22:57.681Z,17.40
2023-05-13T15:25:24.504Z,17.70
2023-05-13T15:27:51.336Z,17.80
2023-05-13T15:30:18.294Z,17.90
2023-05-13T15:32:45.194Z,17.90
2023-05-13T15:35:12.119Z,17.90
2023-05-13T15:37:42.575Z,17.60
2023-05-13T15:40:10.045Z,17.40
2023-05-13T15:42:36.884Z,17.30
2023-05-13T15:45:04.250Z,17.30
2023-05-13T15:47:31.263Z,17.30
2023-05-13T15:49:58.417Z,17.40
2023-05-13T15:52:25.271Z,17.50
2023-05-13T15:54:52.157Z,17.50
2023-05-13T15:57:19.155Z,17.30
2023-05-13T15:59:46.041Z,17.30
2023-05-13T16:02:12.906Z,17.10
2023-05-13T16:04:39.891Z,17.30
2023-05-13T16:07:10.932Z,17.40
2023-05-13T16:09:41.013Z,17.30
2023-05-13T16:12:08.296Z,17.30
2023-05-13T16:14:35.138Z,17.30
2023-05-13T16:17:02.088Z,17.20
2023-05-13T16:19:28.894Z,17.20
2023-05-13T16:21:56.009Z,17.10
2023-05-13T16:24:22.798Z,17.10
2023-05-13T16:26:49.769Z,17.10
2023-05-13T16:29:17.386Z,17.00
2023-05-13T16:31:44.218Z,17.00
2023-05-13T16:34:11.171Z,16.90
2023-05-13T16:36:38.015Z,16.90
2023-05-13T16:39:05.555Z,16.80
2023-05-13T16:41:33.210Z,16.70
2023-05-13T16:44:00.087Z,16.70
2023-05-13T16:46:27.014Z,16.70
2023-05-13T16:48:53.915Z,16.40
2023-05-13T16:51:20.787Z,16.40
2023-05-13T16:53:47.621Z,16.30
2023-05-13T16:56:14.410Z,16.20
2023-05-13T16:58:41.441Z,16.10
2023-05-13T17:01:08.402Z,16.00
2023-05-13T17:03:35.289Z,15.90
2023-05-13T17:06:03.076Z,15.90
2023-05-13T17:08:30.014Z,15.90
2023-05-13T17:10:56.878Z,15.80
2023-05-13T17:13:23.776Z,15.80
2023-05-13T17:15:51.376Z,15.80
2023-05-13T17:18:18.289Z,15.80
2023-05-13T17:20:45.880Z,15.80
2023-05-13T17:23:12.762Z,15.70
2023-05-13T17:25:39.642Z,15.80
2023-05-13T17:28:09.256Z,15.70
2023-05-13T17:30:36.090Z,15.70
2023-05-13T17:33:02.952Z,15.60
2023-05-13T17:35:29.913Z,15.70
2023-05-13T17:37:56.719Z,15.60
2023-05-13T17:40:23.769Z,15.50
2023-05-13T17:42:52.746Z,15.60
2023-05-13T17:45:20.059Z,15.50
2023-05-13T17:47:46.971Z,15.50
2023-05-13T17:50:14.890Z,15.40
2023-05-13T17:52:41.805Z,15.40
2023-05-13T17:55:09.149Z,15.40
2023-05-13T17:57:35.973Z,15.40
2023-05-13T18:00:06.951Z,15.40
2023-05-13T18:02:34.088Z,15.20
2023-05-13T18:05:01.044Z,15.20
2023-05-13T18:07:28.239Z,15.10
2023-05-13T18:09:55.163Z,15.10
2023-05-13T18:12:22.011Z,15.00
2023-05-13T18:14:48.901Z,15.00
2023-05-13T18:17:16.016Z,15.00
2023-05-13T18:19:42.838Z,14.90
2023-05-13T18:22:10.724Z,14.80
2023-05-13T18:24:40.742Z,14.80
2023-05-13T18:27:07.918Z,14.70
2023-05-13T18:29:35.855Z,14.70
2023-05-13T18:32:04.758Z,14.70
2023-05-13T18:34:33.106Z,14.60
2023-05-13T18:37:00.203Z,14.50
2023-05-13T18:39:27.043Z,14.60
2023-05-13T18:41:53.908Z,14.50
2023-05-13T18:44:20.741Z,14.50
2023-05-13T18:46:47.591Z,14.50
2023-05-13T18:49:14.421Z,14.40
2023-05-13T18:51:41.410Z,14.30
2023-05-13T18:54:08.200Z,14.30
2023-05-13T18:56:35.089Z,14.40
2023-05-13T18:59:01.934Z,14.40
2023-05-13T19:01:28.932Z,14.30
2023-05-13T19:03:56.793Z,14.30
2023-05-13T19:06:23.747Z,14.20
2023-05-13T19:08:50.571Z,14.10
2023-05-13T19:11:17.454Z,14.10
2023-05-13T19:13:47.562Z,14.10
2023-05-13T19:16:15.537Z,14.10
2023-05-13T19:18:42.544Z,14.00
2023-05-13T19:21:09.380Z,13.80
2023-05-13T19:23:37.888Z,13.80
2023-05-13T19:26:04.776Z,13.60
2023-05-13T19:28:32.139Z,13.50
2023-05-13T19:30:58.933Z,13.40
2023-05-13T19:33:26.157Z,13.40
2023-05-13T19:35:53.025Z,13.40
2023-05-13T19:38:20.714Z,13.30
2023-05-13T19:40:47.974Z,13.40
2023-05-13T19:43:14.887Z,13.30
2023-05-13T19:45:41.922Z,13.30
2023-05-13T19:48:08.872Z,13.20
2023-05-13T19:50:35.830Z,13.20
2023-05-13T19:53:02.650Z,13.10
2023-05-13T19:55:29.696Z,13.10
2023-05-13T19:57:56.771Z,13.10
2023-05-13T20:00:23.998Z,13.00
2023-05-13T20:02:51.509Z,13.00
2023-05-13T20:05:18.594Z,12.90
2023-05-13T20:07:45.616Z,13.00
2023-05-13T20:10:12.538Z,13.00
2023-05-13T20:12:39.376Z,13.00
2023-05-13T20:15:06.896Z,13.00
2023-05-13T20:17:33.774Z,12.90
2023-05-13T20:20:01.251Z,12.80
2023-05-13T20:22:28.185Z,12.80
2023-05-13T20:24:55.138Z,12.80
2023-05-13T20:27:21.976Z,12.70
2023-05-13T20:29:49.296Z,12.70
2023-05-13T20:32:24.442Z,12.70
2023-05-13T20:34:52.487Z,12.60
2023-05-13T20:37:21.795Z,12.50
2023-05-13T20:39:50.426Z,12.50
2023-05-13T20:42:17.327Z,12.40
2023-05-13T20:44:46.203Z,12.30
2023-05-13T20:47:13.837Z,12.30
2023-05-13T20:49:43.858Z,12.30
2023-05-13T20:52:11.303Z,12.30
2023-05-13T20:54:38.384Z,12.20
2023-05-13T20:57:05.752Z,12.10
2023-05-13T20:59:32.629Z,12.10
2023-05-13T21:01:59.696Z,12.00
2023-05-13T21:04:26.718Z,12.00
2023-05-13T21:06:53.780Z,11.90
2023-05-13T21:09:20.693Z,11.90
2023-05-13T21:11:47.584Z,11.90
2023-05-13T21:14:14.490Z,11.90
2023-05-13T21:16:41.463Z,11.90
2023-05-13T21:19:08.482Z,11.80
2023-05-13T21:21:35.424Z,11.70
2023-05-13T21:24:02.395Z,11.80
2023-05-13T21:26:29.361Z,11.80
2023-05-13T21:28:56.213Z,11.90
2023-05-13T21:31:23.738Z,11.90
2023-05-13T21:33:50.653Z,11.80
2023-05-13T21:36:17.519Z,11.80
2023-05-13T21:38:44.374Z,11.80
2023-05-13T21:41:11.243Z,11.80
2023-05-13T21:43:38.144Z,11.80
2023-05-13T21:46:06.537Z,11.70
2023-05-13T21:48:33.502Z,11.80
2023-05-13T21:51:00.471Z,11.70
2023-05-13T21:53:27.874Z,11.70
2023-05-13T21:55:58.931Z,11.70
2023-05-13T21:58:26.037Z,11.60
2023-05-13T22:00:53.624Z,11.70
2023-05-13T22:03:20.672Z,11.60
2023-05-13T22:05:47.566Z,11.60
2023-05-13T22:08:14.397Z,11.70
2023-05-13T22:10:41.208Z,11.70
2023-05-13T22:13:08.057Z,11.50
2023-05-13T22:15:34.906Z,11.50
2023-05-13T22:18:01.829Z,11.40
2023-05-13T22:20:28.748Z,11.40
2023-05-13T22:22:55.585Z,11.40
2023-05-13T22:25:22.583Z,11.30
2023-05-13T22:27:51.228Z,11.40
2023-05-13T22:30:18.615Z,11.30
2023-05-13T22:32:45.585Z,11.30
2023-05-13T22:35:12.465Z,11.20
2023-05-13T22:37:39.391Z,11.20
2023-05-13T22:40:07.328Z,11.10
2023-05-13T22:42:34.152Z,11.10
2023-05-13T22:45:00.974Z,11.00
2023-05-13T22:47:27.941Z,11.00
2023-05-13T22:49:54.894Z,10.90
2023-05-13T22:52:21.680Z,10.80
2023-05-13T22:54:48.505Z,10.80
2023-05-13T22:57:15.339Z,10.80
2023-05-13T22:59:42.177Z,10.70
2023-05-13T23:02:09.058Z,10.70
2023-05-13T23:04:36.102Z,10.60
2023-05-13T23:07:03.037Z,10.60
2023-05-13T23:09:29.872Z,10.60
2023-05-13T23:11:57.889Z,10.50
2023-05-13T23:14:27.561Z,10.60
2023-05-13T23:16:54.411Z,10.60
2023-05-13T23:19:21.292Z,10.60
2023-05-13T23:21:48.090Z,10.70
2023-05-13T23:24:14.878Z,10.70
2023-05-13T23:26:43.864Z,10.80
2023-05-13T23:29:11.509Z,10.80
2023-05-13T23:31:40.441Z,10.90
2023-05-13T23:34:08.376Z,10.90
2023-05-13T23:36:35.431Z,11.00
2023-05-13T23:39:02.245Z,11.00
2023-05-13T23:41:29.155Z,11.00
2023-05-13T23:43:56.009Z,11.00
2023-05-13T23:46:23.038Z,11.00
2023-05-13T23:48:49.885Z,11.10
2023-05-13T23:51:16.721Z,11.00
2023-05-13T23:53:43.577Z,11.00
2023-05-13T23:56:10.525Z,11.10
2023-05-13T23:58:37.437Z,11.10
